Time;durP1;ratioP1;P1;durP2;ratioP2;P2;SDS_P1;SDS_P2;PMS_P1;PMS_P2;Temp;Humidity;BMP_temperature;BMP_pressure;BME280_temperature;BME280_humidity;BME280_pressure;Samples;Min_cycle;Max_cycle;Signal;HPM_P1;HPM_P2
2021/04/21 06:37:18;;;;;;;10.43;3.97;;;17.10;45.90;;;;;;10571861;27;20524;-41
2021/04/21 06:42:40;;;;;;;7.93;3.80;;;17.20;44.10;;;;;;10538390;28;20712;-41
2021/04/21 06:48:04;;;;;;;8.37;4.10;;;17.30;44.60;;;;;;10552740;28;20627;-41
2021/04/21 06:53:29;;;;;;;5.40;4.03;;;17.60;43.90;;;;;;10648931;27;20221;-43
2021/04/21 06:58:51;;;;;;;6.47;4.10;;;17.60;44.70;;;;;;10645343;27;20723;-41
2021/04/21 07:04:14;;;;;;;5.93;3.27;;;17.80;43.50;;;;;;10651128;27;20258;-41
2021/04/21 07:09:37;;;;;;;5.20;3.50;;;17.60;44.40;;;;;;10696467;27;20201;-44
2021/04/21 07:14:59;;;;;;;5.43;3.57;;;17.60;44.60;;;;;;10697105;27;20650;-43
2021/04/21 07:20:22;;;;;;;9.20;3.90;;;17.80;43.30;;;;;;10653978;27;20228;-44
2021/04/21 07:25:47;;;;;;;5.43;3.17;;;17.80;44.10;;;;;;10653600;27;20727;-42
2021/04/21 07:31:14;;;;;;;7.73;3.77;;;17.90;43.80;;;;;;10653195;27;20217;-44
2021/04/21 07:36:44;;;;;;;6.63;3.23;;;17.90;44.50;;;;;;10654875;27;20680;-44
2021/04/21 07:42:16;;;;;;;3.93;2.97;;;18.10;42.90;;;;;;10648782;27;20207;-43
2021/04/21 07:47:38;;;;;;;5.67;3.13;;;18.20;41.30;;;;;;10628356;27;20178;-44
2021/04/21 07:53:02;;;;;;;4.90;3.33;;;18.20;41.70;;;;;;10622943;27;20271;-43
2021/04/21 07:58:24;;;;;;;5.53;3.77;;;18.30;40.60;;;;;;10623598;27;20202;-41
2021/04/21 08:03:46;;;;;;;6.43;3.90;;;18.20;40.10;;;;;;10622634;27;20206;-42
2021/04/21 08:09:08;;;;;;;6.17;3.70;;;18.30;40.10;;;;;;10621669;27;20653;-43
2021/04/21 08:14:45;;;;;;;6.83;3.30;;;18.30;40.60;;;;;;10623030;27;20222;-41
2021/04/21 08:20:07;;;;;;;4.50;3.20;;;18.40;41.10;;;;;;10621874;27;20210;-41
2021/04/21 08:25:29;;;;;;;4.27;3.23;;;18.50;40.00;;;;;;10619310;27;20661;-39
2021/04/21 08:30:56;;;;;;;3.97;3.30;;;18.60;40.30;;;;;;10621988;27;20218;-43
2021/04/21 08:36:19;;;;;;;6.07;3.10;;;18.70;38.60;;;;;;10645293;27;20213;-43
2021/04/21 08:41:43;;;;;;;5.77;3.40;;;18.70;39.10;;;;;;10608966;27;20214;-42
2021/04/21 08:47:06;;;;;;;4.00;2.60;;;18.70;38.20;;;;;;10620755;27;20236;-43
2021/04/21 08:52:40;;;;;;;2.77;2.30;;;18.80;40.00;;;;;;10621698;27;20275;-43
2021/04/21 08:58:03;;;;;;;6.13;3.10;;;18.80;38.40;;;;;;10627410;27;20577;-43
2021/04/21 09:03:26;;;;;;;4.73;2.60;;;18.80;38.00;;;;;;10610578;27;20279;-43
2021/04/21 09:08:50;;;;;;;4.27;3.10;;;18.90;39.90;;;;;;10613188;27;20198;-44
2021/04/21 09:14:12;;;;;;;4.27;2.57;;;18.90;39.10;;;;;;10614697;27;20257;-43
2021/04/21 09:19:37;;;;;;;4.30;2.57;;;18.90;39.10;;;;;;10619460;27;20581;-41
2021/04/21 09:24:59;;;;;;;2.80;2.40;;;18.90;39.70;;;;;;10621176;27;20201;-41
2021/04/21 09:30:22;;;;;;;3.90;2.70;;;18.90;39.80;;;;;;10613676;27;20210;-43
2021/04/21 09:35:47;;;;;;;3.53;2.53;;;18.80;40.00;;;;;;10619999;27;20266;-41
2021/04/21 09:41:16;;;;;;;3.17;2.30;;;18.90;40.90;;;;;;10613672;27;20275;-43
2021/04/21 09:46:40;;;;;;;6.03;2.90;;;18.80;41.40;;;;;;10580824;27;20199;-43
2021/04/21 09:52:24;;;;;;;3.73;2.67;;;18.90;41.40;;;;;;10575960;28;20310;-42
2021/04/21 09:57:46;;;;;;;6.30;3.60;;;18.90;41.20;;;;;;10606293;27;20722;-45
2021/04/21 10:03:15;;;;;;;5.80;3.30;;;19.00;41.70;;;;;;10630601;27;20218;-41
2021/04/21 10:08:38;;;;;;;5.83;3.40;;;19.00;42.50;;;;;;10618100;27;20187;-42
2021/04/21 10:14:00;;;;;;;4.23;3.57;;;18.90;43.00;;;;;;10617978;27;20743;-42
2021/04/21 10:19:22;;;;;;;5.77;3.83;;;18.90;43.50;;;;;;10618237;27;20744;-42
2021/04/21 10:24:47;;;;;;;6.00;4.17;;;18.90;43.30;;;;;;10617521;27;20194;-43
2021/04/21 10:30:11;;;;;;;5.67;4.47;;;18.90;44.50;;;;;;10575490;28;20211;-41
2021/04/21 10:35:32;;;;;;;8.17;4.83;;;18.90;44.40;;;;;;10578028;27;20586;-43
2021/04/21 10:41:26;;;;;;;6.30;2.87;;;18.90;45.60;;;;;;10606129;28;20210;-44
2021/04/21 10:47:00;;;;;;;6.50;5.53;;;18.90;45.70;;;;;;10618000;28;20202;-42
2021/04/21 10:52:33;;;;;;;8.97;7.67;;;18.80;46.10;;;;;;10613118;27;20217;-43
2021/04/21 10:58:00;;;;;;;8.40;5.97;;;18.70;46.60;;;;;;10647513;27;20190;-43
2021/04/21 11:03:26;;;;;;;13.40;7.40;;;18.80;46.70;;;;;;10617956;27;20241;-43
2021/04/21 11:08:55;;;;;;;6.83;5.07;;;18.70;46.80;;;;;;10606187;27;20195;-39
2021/04/21 11:14:38;;;;;;;9.43;4.40;;;18.90;47.40;;;;;;10586433;28;20223;-40
2021/04/21 11:20:00;;;;;;;9.10;5.37;;;21.40;42.10;;;;;;10617560;27;20213;-40
2021/04/21 11:25:30;;;;;;;36.57;11.00;;;23.50;37.90;;;;;;10621194;27;20245;-42
2021/04/21 11:31:01;;;;;;;90.83;21.60;;;26.70;33.10;;;;;;10634550;27;20210;-44
2021/04/21 11:36:37;;;;;;;124.27;30.87;;;30.10;29.00;;;;;;10623800;27;20233;-42
2021/04/21 11:42:16;;;;;;;96.27;27.97;;;30.70;28.00;;;;;;10613906;27;20215;-44
2021/04/21 11:47:41;;;;;;;100.90;29.63;;;30.40;28.10;;;;;;10618557;27;20614;-43
2021/04/21 11:53:14;;;;;;;91.50;28.27;;;31.60;27.40;;;;;;10619980;27;20225;-42
2021/04/21 11:58:38;;;;;;;90.93;28.90;;;31.30;27.30;;;;;;10622850;27;20199;-45
2021/04/21 12:04:00;;;;;;;103.30;31.83;;;30.50;28.00;;;;;;10622970;27;20206;-41
2021/04/21 12:09:34;;;;;;;92.80;29.97;;;29.40;29.00;;;;;;10627201;27;20198;-43
2021/04/21 12:15:07;;;;;;;83.60;27.90;;;28.60;30.00;;;;;;10623728;27;20704;-42
2021/04/21 12:20:30;;;;;;;85.57;28.33;;;29.80;29.00;;;;;;10615077;22;20221;-29
2021/04/21 12:25:52;;;;;;;86.27;27.13;;;31.60;27.40;;;;;;10443151;28;20268;-32
2021/04/21 12:31:14;;;;;;;81.47;26.13;;;31.50;27.20;;;;;;10448043;28;20220;-29
2021/04/21 12:36:38;;;;;;;70.50;24.30;;;31.20;27.60;;;;;;10453625;28;20204;-31
2021/04/21 12:42:01;;;;;;;66.15;23.30;;;32.30;26.70;;;;;;10432836;28;20216;-32
2021/04/21 12:47:30;;;;;;;56.60;20.60;;;32.70;26.10;;;;;;10454573;28;20239;-32
2021/04/21 12:53:09;;;;;;;48.00;18.00;;;31.70;26.90;;;;;;10452498;28;20587;-31
2021/04/21 12:58:36;;;;;;;45.80;16.70;;;30.50;27.80;;;;;;10421998;28;20194;-30
2021/04/21 13:04:02;;;;;;;36.63;14.63;;;30.10;28.40;;;;;;10449889;28;20493;-29
2021/04/21 13:09:29;;;;;;;39.67;15.17;;;31.60;27.20;;;;;;10452367;28;20196;-30
2021/04/21 13:14:51;;;;;;;37.35;13.70;;;33.10;26.00;;;;;;10449417;28;20744;-28
2021/04/21 13:20:13;;;;;;;31.35;13.45;;;32.80;26.10;;;;;;10412276;28;20237;-33
2021/04/21 13:25:35;;;;;;;34.67;12.90;;;32.70;26.40;;;;;;10420726;28;20219;-29
2021/04/21 13:31:03;;;;;;;28.55;12.25;;;33.20;25.60;;;;;;10445295;28;20213;-34
2021/04/21 13:36:25;;;;;;;28.63;11.77;;;32.30;26.20;;;;;;10451804;28;20573;-32
2021/04/21 13:41:47;;;;;;;29.08;11.80;;;32.20;26.50;;;;;;10426293;28;20224;-32
2021/04/21 13:47:09;;;;;;;30.40;11.48;;;32.90;25.90;;;;;;10431470;28;20762;-31
2021/04/21 13:52:31;;;;;;;27.80;10.80;;;32.30;26.30;;;;;;10451849;28;20615;-35
2021/04/21 13:57:53;;;;;;;28.87;11.43;;;32.00;26.60;;;;;;10428674;28;20193;-30
2021/04/21 14:03:15;;;;;;;28.13;10.53;;;32.40;26.30;;;;;;10412802;28;20280;-30
2021/04/21 14:08:36;;;;;;;25.23;10.52;;;31.80;26.80;;;;;;10454406;28;20228;-30
2021/04/21 14:13:59;;;;;;;23.20;10.57;;;32.00;26.70;;;;;;10459204;28;20212;-34
2021/04/21 14:19:20;;;;;;;23.27;9.70;;;32.40;26.20;;;;;;10442376;28;20220;-33
2021/04/21 14:24:42;;;;;;;22.57;9.40;;;31.70;26.80;;;;;;10446356;28;20226;-30
2021/04/21 14:30:07;;;;;;;21.40;9.32;;;32.10;26.60;;;;;;10450742;28;20221;-30
2021/04/21 14:35:29;;;;;;;19.25;8.35;;;32.80;25.90;;;;;;10451600;28;20200;-31
2021/04/21 14:40:51;;;;;;;19.35;8.57;;;32.30;26.30;;;;;;10442787;28;20997;-31
2021/04/21 14:46:13;;;;;;;18.67;8.85;;;32.70;26.00;;;;;;10411293;28;20213;-34
2021/04/21 14:51:35;;;;;;;17.77;8.05;;;33.10;25.70;;;;;;10407591;28;20237;-31
2021/04/21 14:56:57;;;;;;;14.77;7.32;;;32.40;26.30;;;;;;10437073;28;20193;-29
2021/04/21 15:02:20;;;;;;;18.15;7.60;;;32.70;26.10;;;;;;10433310;28;20853;-31
2021/04/21 15:07:43;;;;;;;16.00;7.32;;;33.20;25.70;;;;;;10417224;28;20701;-33
2021/04/21 15:13:05;;;;;;;17.30;7.00;;;32.50;26.30;;;;;;10417787;28;20684;-32
2021/04/21 15:18:28;;;;;;;18.33;7.38;;;33.00;25.90;;;;;;10417545;28;20241;-32
2021/04/21 15:23:50;;;;;;;15.50;6.72;;;33.10;25.70;;;;;;10439622;28;20221;-31
2021/04/21 15:29:12;;;;;;;16.40;6.93;;;32.50;26.20;;;;;;10459400;28;20580;-32
2021/04/21 15:34:35;;;;;;;14.15;6.18;;;32.80;25.60;;;;;;10458311;28;20208;-31
2021/04/21 15:40:03;;;;;;;14.20;6.40;;;32.40;25.90;;;;;;10451870;28;20200;-30
2021/04/21 15:45:27;;;;;;;14.68;6.18;;;32.00;26.20;;;;;;10456933;28;20274;-29
2021/04/21 15:50:49;;;;;;;12.43;5.82;;;32.80;25.60;;;;;;10456209;28;20569;-29
2021/04/21 15:56:14;;;;;;;12.98;5.25;;;32.30;25.80;;;;;;10441116;28;20232;-30
2021/04/21 16:01:35;;;;;;;10.43;5.18;;;32.20;25.90;;;;;;10415691;28;20223;-33
2021/04/21 16:06:59;;;;;;;13.15;5.50;;;32.80;25.30;;;;;;10424985;28;20224;-34
2021/04/21 16:12:21;;;;;;;8.77;4.55;;;32.20;25.80;;;;;;10449769;28;20217;-33
2021/04/21 16:17:43;;;;;;;9.88;4.78;;;32.50;25.60;;;;;;10456449;28;20193;-32
2021/04/21 16:23:06;;;;;;;11.00;4.60;;;33.30;25.10;;;;;;10434805;28;20244;-32
2021/04/21 16:28:27;;;;;;;9.02;4.07;;;32.60;25.50;;;;;;10414743;28;20194;-32
2021/04/21 16:33:49;;;;;;;12.00;4.93;;;32.60;25.70;;;;;;10414171;28;20704;-30
2021/04/21 16:39:11;;;;;;;9.93;4.47;;;33.00;25.30;;;;;;10414266;28;20194;-33
2021/04/21 16:44:33;;;;;;;11.05;4.75;;;32.20;25.90;;;;;;10413973;28;20570;-34
2021/04/21 16:49:54;;;;;;;8.75;4.47;;;32.30;25.90;;;;;;10436798;28;20207;-33
2021/04/21 16:55:18;;;;;;;8.45;4.30;;;33.10;25.20;;;;;;10449538;28;20189;-34
2021/04/21 17:00:40;;;;;;;9.70;4.25;;;32.40;25.50;;;;;;10416077;28;20690;-33
2021/04/21 17:06:02;;;;;;;6.28;3.20;;;32.40;25.50;;;;;;10416645;28;20859;-31
2021/04/21 17:11:24;;;;;;;9.80;3.85;;;33.40;24.90;;;;;;10449328;28;20213;-32
2021/04/21 17:16:46;;;;;;;6.82;3.70;;;32.80;25.20;;;;;;10451189;28;20206;-33
2021/04/21 17:22:08;;;;;;;6.72;3.67;;;32.40;25.60;;;;;;10451958;28;20240;-31
2021/04/21 17:27:30;;;;;;;5.80;3.42;;;33.60;24.80;;;;;;10412078;28;20214;-30
2021/04/21 17:32:52;;;;;;;6.85;3.47;;;33.60;24.70;;;;;;10411604;28;20811;-29
2021/04/21 17:38:14;;;;;;;7.97;3.50;;;33.00;25.20;;;;;;10412147;28;20189;-31
2021/04/21 17:43:37;;;;;;;7.85;3.55;;;33.90;24.60;;;;;;10434869;28;20267;-31
2021/04/21 17:48:58;;;;;;;7.32;3.13;;;34.00;24.50;;;;;;10450873;28;20205;-28
2021/04/21 17:54:20;;;;;;;5.70;3.10;;;32.90;25.30;;;;;;10448933;28;20220;-31
2021/04/21 17:59:43;;;;;;;6.90;3.50;;;31.30;26.60;;;;;;10410572;28;20572;-30
2021/04/21 18:05:06;;;;;;;5.40;3.03;;;30.50;27.60;;;;;;10410224;28;20213;-30
2021/04/21 18:10:27;;;;;;;5.93;2.80;;;31.70;26.40;;;;;;10442983;28;20692;-30
2021/04/21 18:15:50;;;;;;;5.05;2.78;;;33.10;25.40;;;;;;10441198;28;20198;-32
2021/04/21 18:21:11;;;;;;;5.03;2.60;;;33.00;25.30;;;;;;10407012;28;20728;-31
2021/04/21 18:26:33;;;;;;;8.53;3.03;;;31.90;26.00;;;;;;10410568;28;20218;-29
2021/04/21 18:31:57;;;;;;;5.93;3.03;;;30.50;27.30;;;;;;10444962;28;20217;-31
2021/04/21 18:37:19;;;;;;;4.67;2.63;;;29.00;28.70;;;;;;10460777;22;20229;-42
2021/04/21 18:42:41;;;;;;;5.87;2.73;;;28.20;29.80;;;;;;10440691;28;20201;-43
2021/04/21 18:48:06;;;;;;;7.90;2.57;;;30.40;27.70;;;;;;10450989;28;20220;-44
2021/04/21 18:53:28;;;;;;;5.68;2.47;;;32.70;25.50;;;;;;10450663;28;20219;-43
2021/04/21 18:58:49;;;;;;;5.93;2.60;;;34.30;24.40;;;;;;10449451;28;20189;-40
2021/04/21 19:04:12;;;;;;;5.20;2.35;;;34.90;23.90;;;;;;10429669;28;20224;-43
2021/04/21 19:09:34;;;;;;;6.22;2.70;;;33.80;24.50;;;;;;10428465;28;20280;-43
2021/04/21 19:14:55;;;;;;;5.88;2.67;;;32.50;25.40;;;;;;10427315;28;20217;-42
2021/04/21 19:20:20;;;;;;;3.50;2.33;;;33.30;24.90;;;;;;10411565;28;20194;-43
2021/04/21 19:25:42;;;;;;;4.72;2.15;;;34.70;23.90;;;;;;10440736;28;20229;-43
2021/04/21 19:31:04;;;;;;;5.35;2.28;;;35.40;24.20;;;;;;10449899;28;20193;-44
2021/04/21 19:36:27;;;;;;;4.82;2.25;;;34.40;24.20;;;;;;10449652;28;20739;-44
2021/04/21 19:41:49;;;;;;;5.53;2.22;;;34.70;24.00;;;;;;10446347;28;20201;-45
2021/04/21 19:47:11;;;;;;;4.13;1.83;;;35.20;23.70;;;;;;10416718;28;20225;-40
2021/04/21 19:52:34;;;;;;;6.05;2.45;;;34.30;24.30;;;;;;10420809;28;20202;-41
2021/04/21 19:57:55;;;;;;;5.03;2.40;;;34.70;24.00;;;;;;10444735;28;20287;-45
2021/04/21 20:03:19;;;;;;;6.10;2.53;;;35.10;23.80;;;;;;10456556;28;20258;-44
2021/04/21 20:08:44;;;;;;;4.25;2.20;;;34.30;24.40;;;;;;10455705;28;20243;-42
2021/04/21 20:14:06;;;;;;;4.95;2.30;;;34.80;24.00;;;;;;10455899;28;20745;-43
2021/04/21 20:19:27;;;;;;;5.22;2.25;;;35.50;23.50;;;;;;10454577;28;20664;-44
2021/04/21 20:24:50;;;;;;;5.25;2.38;;;34.90;23.90;;;;;;10437449;28;20644;-43
2021/04/21 20:30:15;;;;;;;5.20;2.30;;;35.40;23.60;;;;;;10412172;28;20221;-43
2021/04/21 20:35:36;;;;;;;6.38;2.17;;;35.40;23.50;;;;;;10419808;28;20588;-43
2021/04/21 20:40:59;;;;;;;4.60;2.15;;;34.40;24.10;;;;;;10435884;28;20204;-41
2021/04/21 20:46:21;;;;;;;3.55;2.33;;;32.80;25.10;;;;;;10454993;28;20213;-46
2021/04/21 20:51:42;;;;;;;6.37;2.20;;;31.30;26.50;;;;;;10454148;28;20275;-43
2021/04/21 20:57:06;;;;;;;6.17;2.47;;;29.80;27.70;;;;;;10430463;28;20214;-41
2021/04/21 21:02:28;;;;;;;6.27;2.13;;;28.50;29.00;;;;;;10411843;28;20201;-43
2021/04/21 21:07:51;;;;;;;6.17;2.30;;;27.80;29.90;;;;;;10412026;28;20225;-42
2021/04/21 21:13:13;;;;;;;4.70;1.80;;;27.00;30.70;;;;;;10412469;28;20193;-42
2021/04/21 21:18:35;;;;;;;4.33;1.80;;;26.30;31.90;;;;;;10412547;28;20213;-44
2021/04/21 21:23:56;;;;;;;3.87;2.00;;;25.90;32.40;;;;;;10418381;28;20215;-43
2021/04/21 21:29:19;;;;;;;5.40;2.10;;;25.30;33.40;;;;;;10445874;28;20251;-43
2021/04/21 21:34:40;;;;;;;5.30;2.07;;;25.30;33.60;;;;;;10453063;28;20240;-43
2021/04/21 21:40:04;;;;;;;4.83;1.80;;;27.10;30.90;;;;;;10452699;28;20702;-44
2021/04/21 21:45:26;;;;;;;5.03;2.03;;;27.80;29.80;;;;;;10452784;28;20607;-41
2021/04/21 21:50:48;;;;;;;3.67;2.00;;;27.40;30.20;;;;;;10450722;28;20193;-43
2021/04/21 21:56:11;;;;;;;4.50;1.73;;;26.70;30.90;;;;;;10430480;28;20217;-43
2021/04/21 22:01:33;;;;;;;5.13;2.13;;;25.90;32.20;;;;;;10413717;28;20213;-41
2021/04/21 22:06:55;;;;;;;4.50;2.00;;;25.80;32.90;;;;;;10441947;28;20669;-43
2021/04/21 22:12:21;;;;;;;3.67;1.60;;;27.30;30.50;;;;;;10451840;28;20200;-43
2021/04/21 22:17:44;;;;;;;4.10;1.90;;;27.90;29.60;;;;;;10451805;28;20205;-45
2021/04/21 22:23:06;;;;;;;3.80;1.90;;;27.50;29.90;;;;;;10451358;28;20275;-37
2021/04/21 22:28:29;;;;;;;3.47;1.63;;;26.80;30.70;;;;;;10443630;28;20224;-43
2021/04/21 22:33:51;;;;;;;4.23;2.17;;;26.00;32.10;;;;;;10434503;28;20609;-44
2021/04/21 22:39:13;;;;;;;6.13;2.00;;;25.70;32.90;;;;;;10409552;28;20190;-43
2021/04/21 22:44:35;;;;;;;5.13;2.03;;;27.30;30.50;;;;;;10408383;28;20698;-41
2021/04/21 22:49:57;;;;;;;3.33;1.70;;;28.30;29.30;;;;;;10409241;28;20197;-43
2021/04/21 22:55:23;;;;;;;5.37;2.50;;;27.90;29.50;;;;;;10417897;28;20221;-45
2021/04/21 23:00:44;;;;;;;5.57;2.37;;;27.20;30.00;;;;;;10477270;28;20262;-40
2021/04/21 23:06:07;;;;;;;3.60;1.73;;;26.40;31.30;;;;;;10458123;28;20616;-39
2021/04/21 23:11:29;;;;;;;3.80;1.70;;;25.70;32.60;;;;;;10491303;28;20622;-41
2021/04/21 23:16:51;;;;;;;4.13;2.00;;;26.90;31.00;;;;;;10495396;28;20216;-44
2021/04/21 23:22:14;;;;;;;4.00;1.57;;;28.20;29.40;;;;;;10499022;28;20280;-44
2021/04/21 23:27:35;;;;;;;3.80;1.60;;;28.00;29.40;;;;;;10444596;28;20221;-44
2021/04/21 23:32:58;;;;;;;2.90;1.53;;;27.40;30.00;;;;;;10457961;28;20208;-44
2021/04/21 23:38:21;;;;;;;3.90;1.60;;;26.60;31.00;;;;;;10458209;28;20217;-41
2021/04/21 23:43:43;;;;;;;3.80;1.90;;;25.80;32.20;;;;;;10457113;28;20197;-42
2021/04/21 23:49:05;;;;;;;5.37;2.10;;;26.90;30.90;;;;;;10437152;28;20205;-45
2021/04/21 23:54:27;;;;;;;3.80;1.80;;;28.50;29.10;;;;;;10456895;28;20221;-44
2021/04/21 23:59:49;;;;;;;4.87;1.87;;;28.40;28.90;;;;;;10456360;28;20688;-43
